Time;durP1;ratioP1;P1;durP2;ratioP2;P2;SDS_P1;SDS_P2;PMS_P1;PMS_P2;Temp;Humidity;BMP_temperature;BMP_pressure;BME280_temperature;BME280_humidity;BME280_pressure;Samples;Min_cycle;Max_cycle;Signal;HPM_P1;HPM_P2
2023/09/21 00:01:05;;;;;;;6.95;1.00;;;14.10;99.90;;;;;;5049893;28;20400;-60
2023/09/21 00:03:35;;;;;;;6.93;1.30;;;14.00;99.90;;;;;;5054604;28;20094;-61
2023/09/21 00:06:03;;;;;;;6.22;1.10;;;14.00;99.90;;;;;;5066439;28;20240;-60
2023/09/21 00:08:31;;;;;;;6.93;1.65;;;13.90;99.90;;;;;;5033295;28;20049;-59
2023/09/21 00:10:58;;;;;;;8.10;1.48;;;13.90;99.90;;;;;;5048087;28;20049;-59
2023/09/21 00:13:32;;;;;;;9.20;1.85;;;13.80;99.90;;;;;;5057348;28;20475;-59
2023/09/21 00:16:02;;;;;;;3.95;1.20;;;13.80;99.90;;;;;;5048794;28;20045;-60
2023/09/21 00:18:31;;;;;;;9.77;1.95;;;13.70;99.90;;;;;;5056133;28;20239;-59
2023/09/21 00:21:01;;;;;;;6.53;1.73;;;13.80;99.90;;;;;;5050507;28;20556;-59
2023/09/21 00:23:30;;;;;;;4.15;1.20;;;13.70;99.90;;;;;;5051216;28;20041;-60
2023/09/21 00:26:00;;;;;;;8.20;1.48;;;13.70;99.90;;;;;;5062651;28;20049;-59
2023/09/21 00:28:28;;;;;;;7.32;1.77;;;13.70;99.90;;;;;;5061141;28;20090;-59
2023/09/21 00:30:57;;;;;;;11.13;1.75;;;13.70;99.90;;;;;;5063493;28;20098;-59
2023/09/21 00:33:25;;;;;;;6.03;1.40;;;13.70;99.90;;;;;;5066155;28;20059;-60
2023/09/21 00:35:52;;;;;;;6.40;1.75;;;13.70;99.90;;;;;;5058592;28;20057;-59
2023/09/21 00:38:20;;;;;;;10.85;1.60;;;13.70;99.90;;;;;;5052491;28;20048;-60
2023/09/21 00:40:48;;;;;;;4.80;1.42;;;13.70;99.90;;;;;;5060903;28;20565;-61
2023/09/21 00:43:21;;;;;;;9.13;1.55;;;13.70;99.90;;;;;;5051868;28;20072;-59
2023/09/21 00:45:54;;;;;;;6.85;2.10;;;13.70;99.90;;;;;;5061881;28;20495;-60
2023/09/21 00:48:25;;;;;;;7.53;1.40;;;13.60;99.90;;;;;;5051702;28;20040;-60
2023/09/21 00:50:57;;;;;;;12.02;1.75;;;13.70;99.90;;;;;;5045020;28;20490;-60
2023/09/21 00:53:27;;;;;;;10.83;1.93;;;13.80;99.90;;;;;;4684561;28;10000222;-60
2023/09/21 00:55:55;;;;;;;10.23;1.85;;;13.90;99.90;;;;;;5041776;28;20052;-60
2023/09/21 00:58:23;;;;;;;6.75;1.10;;;13.80;99.90;;;;;;5052041;28;20106;-61
2023/09/21 01:00:50;;;;;;;16.20;1.40;;;13.80;99.90;;;;;;5058773;28;20048;-60
2023/09/21 01:03:17;;;;;;;14.18;3.45;;;13.80;99.90;;;;;;5070367;28;20487;-61
2023/09/21 01:05:45;;;;;;;11.45;2.78;;;13.80;99.90;;;;;;5063068;28;20441;-61
2023/09/21 01:08:13;;;;;;;6.93;1.08;;;13.80;99.90;;;;;;5050337;28;20059;-60
2023/09/21 01:10:44;;;;;;;8.50;1.90;;;13.90;99.90;;;;;;5062288;28;20105;-60
2023/09/21 01:13:12;;;;;;;10.73;1.83;;;13.90;99.90;;;;;;5050060;28;20052;-60
2023/09/21 01:15:45;;;;;;;9.50;1.10;;;13.90;99.90;;;;;;5054088;28;20044;-60
2023/09/21 01:18:12;;;;;;;20.80;1.75;;;13.80;99.90;;;;;;5054637;28;20084;-60
2023/09/21 01:20:42;;;;;;;5.22;1.42;;;13.80;99.90;;;;;;5062758;28;20123;-60
2023/09/21 01:23:15;;;;;;;8.52;1.88;;;13.80;99.90;;;;;;5051790;28;20107;-60
2023/09/21 01:25:42;;;;;;;7.30;1.17;;;13.90;99.90;;;;;;5058881;28;20043;-60
2023/09/21 01:28:10;;;;;;;7.22;1.83;;;13.90;99.90;;;;;;5051150;28;20312;-60
2023/09/21 01:30:38;;;;;;;7.85;1.40;;;13.80;99.90;;;;;;5060371;28;20562;-60
2023/09/21 01:33:08;;;;;;;8.48;1.42;;;13.80;99.90;;;;;;5064585;28;20059;-60
2023/09/21 01:35:36;;;;;;;5.25;1.30;;;13.90;99.90;;;;;;5064297;28;20376;-60
2023/09/21 01:38:06;;;;;;;13.90;1.90;;;13.90;99.90;;;;;;5062891;28;20098;-60
2023/09/21 01:40:34;;;;;;;7.68;1.88;;;14.00;99.90;;;;;;5064844;28;20048;-60
2023/09/21 01:43:20;;;;;;;6.55;1.65;;;14.00;99.90;;;;;;5058116;28;20401;-60
2023/09/21 01:45:49;;;;;;;9.27;1.70;;;13.90;99.90;;;;;;5053461;28;20041;-60
2023/09/21 01:48:18;;;;;;;8.15;1.55;;;14.00;99.90;;;;;;5061741;28;20070;-60
2023/09/21 01:50:50;;;;;;;4.68;1.27;;;13.90;99.90;;;;;;5066756;28;20404;-60
2023/09/21 01:53:19;;;;;;;8.85;1.60;;;13.90;99.90;;;;;;5059978;28;20462;-60
2023/09/21 01:55:47;;;;;;;7.57;1.55;;;13.90;99.90;;;;;;5064681;28;20321;-60
2023/09/21 01:58:15;;;;;;;4.13;1.20;;;13.90;99.90;;;;;;5042433;28;20080;-60
2023/09/21 02:00:46;;;;;;;6.72;1.17;;;13.90;99.90;;;;;;5051222;28;20048;-60
2023/09/21 02:03:17;;;;;;;7.93;1.50;;;13.90;99.90;;;;;;5058224;28;20055;-60
2023/09/21 02:05:46;;;;;;;5.95;1.17;;;13.90;99.90;;;;;;5067568;28;20076;-60
2023/09/21 02:08:13;;;;;;;9.65;3.00;;;13.90;99.90;;;;;;5057969;28;20048;-60
2023/09/21 02:10:40;;;;;;;6.55;1.15;;;13.90;99.90;;;;;;5069314;28;20046;-60
2023/09/21 02:13:07;;;;;;;4.50;1.00;;;13.90;99.90;;;;;;5043242;28;20045;-60
2023/09/21 02:15:37;;;;;;;16.55;2.63;;;13.80;99.90;;;;;;5048848;28;20052;-60
2023/09/21 02:18:05;;;;;;;5.93;1.30;;;13.90;99.90;;;;;;5054473;28;20138;-60
2023/09/21 02:20:34;;;;;;;6.63;1.17;;;13.80;99.90;;;;;;5069008;28;20060;-58
2023/09/21 02:23:02;;;;;;;3.30;1.30;;;13.90;99.90;;;;;;5064002;28;20094;-60
2023/09/21 02:25:39;;;;;;;7.05;1.17;;;13.90;99.90;;;;;;5029076;28;20053;-60
2023/09/21 02:28:09;;;;;;;10.80;1.52;;;13.90;99.90;;;;;;5048183;28;20111;-60
2023/09/21 02:30:37;;;;;;;5.10;1.30;;;13.90;99.90;;;;;;5051199;28;20288;-60
2023/09/21 02:33:07;;;;;;;5.30;2.10;;;13.80;99.90;;;;;;5064054;28;20136;-60
2023/09/21 02:35:35;;;;;;;6.47;1.60;;;13.80;99.90;;;;;;5050451;28;20056;-61
2023/09/21 02:38:03;;;;;;;4.55;1.38;;;13.90;99.90;;;;;;5056885;28;20106;-60
2023/09/21 02:40:30;;;;;;;6.57;1.48;;;13.80;99.90;;;;;;5052867;28;20049;-60
2023/09/21 02:42:56;;;;;;;13.00;1.20;;;13.80;99.90;;;;;;5054487;28;20040;-60
2023/09/21 02:45:24;;;;;;;12.45;1.48;;;13.70;99.90;;;;;;5054392;28;20048;-60
2023/09/21 02:48:03;;;;;;;5.05;1.70;;;13.70;99.90;;;;;;5052231;28;20070;-60
2023/09/21 02:50:30;;;;;;;7.45;1.23;;;13.70;99.90;;;;;;5061878;28;20056;-59
2023/09/21 02:53:06;;;;;;;7.45;2.20;;;13.70;99.90;;;;;;5064082;28;20094;-60
2023/09/21 02:55:37;;;;;;;6.93;1.38;;;13.70;99.90;;;;;;5060869;28;20079;-59
2023/09/21 02:58:14;;;;;;;5.20;1.35;;;13.70;99.90;;;;;;5063720;28;20049;-60
2023/09/21 03:00:45;;;;;;;5.97;1.40;;;13.60;99.90;;;;;;5056165;28;20041;-59
2023/09/21 03:03:14;;;;;;;9.65;1.17;;;13.70;99.90;;;;;;5051937;28;20055;-60
2023/09/21 03:05:42;;;;;;;5.70;1.15;;;13.60;99.90;;;;;;5059209;28;20044;-59
2023/09/21 03:08:13;;;;;;;7.68;1.38;;;13.50;99.90;;;;;;5066792;28;20048;-59
2023/09/21 03:10:49;;;;;;;7.13;1.20;;;13.50;99.90;;;;;;5046296;28;20101;-60
2023/09/21 03:13:17;;;;;;;10.40;1.90;;;13.50;99.90;;;;;;5066355;28;20443;-60
2023/09/21 03:15:48;;;;;;;9.13;1.42;;;13.50;99.90;;;;;;5056841;28;20123;-60
2023/09/21 03:18:15;;;;;;;10.02;1.40;;;13.50;99.90;;;;;;5066189;28;20049;-60
2023/09/21 03:20:43;;;;;;;7.68;1.63;;;13.50;99.90;;;;;;5056889;28;20099;-60
2023/09/21 03:23:12;;;;;;;8.00;1.40;;;13.50;99.90;;;;;;5067394;28;20087;-60
2023/09/21 03:25:42;;;;;;;13.63;2.58;;;13.60;99.90;;;;;;5059794;28;20045;-61
2023/09/21 03:28:13;;;;;;;3.17;1.00;;;13.60;99.90;;;;;;5047774;28;20594;-60
2023/09/21 03:30:43;;;;;;;6.03;2.53;;;13.50;99.90;;;;;;5055179;28;20040;-60
2023/09/21 03:33:11;;;;;;;7.75;1.50;;;13.50;99.90;;;;;;5068216;28;20056;-60
2023/09/21 03:35:38;;;;;;;6.03;1.65;;;13.60;99.90;;;;;;5061768;28;20460;-60
2023/09/21 03:38:12;;;;;;;11.30;1.20;;;13.50;99.90;;;;;;5047914;28;20049;-61
2023/09/21 03:40:39;;;;;;;6.40;1.50;;;13.40;99.90;;;;;;5026307;28;20250;-60
2023/09/21 03:43:15;;;;;;;10.75;2.28;;;13.40;99.90;;;;;;5030324;28;20049;-60
2023/09/21 03:45:43;;;;;;;12.20;2.17;;;13.30;99.90;;;;;;5051727;28;20059;-59
2023/09/21 03:48:10;;;;;;;8.75;1.60;;;13.30;99.90;;;;;;5049777;28;20102;-59
2023/09/21 03:50:39;;;;;;;5.38;1.05;;;13.30;99.90;;;;;;5063289;28;20036;-59
2023/09/21 03:53:08;;;;;;;12.40;1.58;;;13.40;99.90;;;;;;5049937;28;20049;-60
2023/09/21 03:55:36;;;;;;;7.88;1.65;;;13.40;99.90;;;;;;5055743;28;20124;-60
2023/09/21 03:58:05;;;;;;;9.02;1.55;;;13.40;99.90;;;;;;5033926;28;20110;-60
2023/09/21 04:00:36;;;;;;;7.70;1.33;;;13.40;99.90;;;;;;5053610;28;20095;-60
2023/09/21 04:03:06;;;;;;;11.02;2.00;;;13.40;99.90;;;;;;5064627;28;20059;-62
2023/09/21 04:05:35;;;;;;;7.22;1.48;;;13.40;99.90;;;;;;5052928;28;20041;-59
2023/09/21 04:08:03;;;;;;;11.52;1.85;;;13.40;99.90;;;;;;5051712;28;20543;-60
2023/09/21 04:10:32;;;;;;;7.03;1.50;;;13.40;99.90;;;;;;5037860;28;20044;-60
2023/09/21 04:12:59;;;;;;;9.63;2.78;;;13.40;99.90;;;;;;5044834;28;20495;-60
2023/09/21 04:15:29;;;;;;;5.60;1.42;;;13.50;99.90;;;;;;5069519;28;20040;-60
2023/09/21 04:17:57;;;;;;;12.02;2.10;;;13.40;99.90;;;;;;5052954;28;20048;-59
2023/09/21 04:20:24;;;;;;;6.78;2.03;;;13.40;99.90;;;;;;5053579;28;20466;-60
2023/09/21 04:22:55;;;;;;;10.73;1.65;;;13.40;99.90;;;;;;5060190;28;20052;-60
2023/09/21 04:25:22;;;;;;;6.47;1.83;;;13.40;99.90;;;;;;5039090;28;20401;-60
2023/09/21 04:27:49;;;;;;;7.53;1.48;;;13.30;99.90;;;;;;5056655;28;20060;-59
2023/09/21 04:30:21;;;;;;;8.55;1.55;;;13.30;99.90;;;;;;5070968;28;20083;-60
2023/09/21 04:32:49;;;;;;;7.38;1.33;;;13.30;99.90;;;;;;5058333;28;20055;-60
2023/09/21 04:35:18;;;;;;;6.40;1.67;;;13.20;99.90;;;;;;5071230;28;20051;-60
2023/09/21 04:37:45;;;;;;;11.10;1.63;;;13.20;99.90;;;;;;5058069;28;20053;-60
2023/09/21 04:40:12;;;;;;;9.70;1.83;;;13.20;99.90;;;;;;5053759;28;20048;-60
2023/09/21 04:42:46;;;;;;;8.07;1.15;;;13.20;99.90;;;;;;5058034;28;20223;-59
2023/09/21 04:45:16;;;;;;;10.25;1.75;;;13.30;99.90;;;;;;5069371;28;20499;-60
2023/09/21 04:47:45;;;;;;;7.70;1.55;;;13.30;99.90;;;;;;5059068;28;20056;-60
2023/09/21 04:50:13;;;;;;;11.05;1.38;;;13.30;99.90;;;;;;5069850;28;20041;-60
2023/09/21 04:52:40;;;;;;;5.07;1.00;;;13.20;99.90;;;;;;5060648;28;20060;-59
2023/09/21 04:55:10;;;;;;;8.77;1.45;;;13.20;99.90;;;;;;5063133;28;20045;-59
2023/09/21 04:57:37;;;;;;;4.72;1.13;;;13.30;99.90;;;;;;5051286;28;20048;-60
2023/09/21 05:00:07;;;;;;;10.40;2.15;;;13.30;99.90;;;;;;5070607;28;20044;-60
2023/09/21 05:02:34;;;;;;;7.05;1.33;;;13.30;99.90;;;;;;5063895;28;20041;-60
2023/09/21 05:05:02;;;;;;;10.77;1.73;;;13.30;99.90;;;;;;5063319;28;20045;-60
2023/09/21 05:07:29;;;;;;;8.45;1.67;;;13.30;99.90;;;;;;5064897;28;20407;-59
2023/09/21 05:09:56;;;;;;;7.28;1.70;;;13.30;99.90;;;;;;5058839;28;20451;-60
2023/09/21 05:12:22;;;;;;;12.10;1.45;;;13.20;99.90;;;;;;5054560;28;20071;-60
2023/09/21 05:14:50;;;;;;;10.35;2.10;;;13.30;99.90;;;;;;5048262;28;20131;-60
2023/09/21 05:17:18;;;;;;;14.07;2.10;;;13.20;99.90;;;;;;5066449;28;20048;-60
2023/09/21 05:19:44;;;;;;;7.38;1.55;;;13.20;99.90;;;;;;5061061;28;20132;-59
2023/09/21 05:22:11;;;;;;;10.13;1.98;;;13.20;99.90;;;;;;5050051;28;20052;-59
2023/09/21 05:24:39;;;;;;;8.45;1.73;;;13.20;99.90;;;;;;5058120;28;20051;-60
2023/09/21 05:27:09;;;;;;;15.73;2.33;;;13.30;99.90;;;;;;5069541;28;20052;-60
2023/09/21 05:29:37;;;;;;;11.25;3.65;;;13.30;99.90;;;;;;5062418;28;20044;-59
2023/09/21 05:32:05;;;;;;;7.88;1.50;;;13.20;99.90;;;;;;5045393;28;20061;-60
2023/09/21 05:34:32;;;;;;;14.43;1.45;;;13.20;99.90;;;;;;5032779;28;20049;-59
2023/09/21 05:37:00;;;;;;;20.63;2.88;;;13.20;99.90;;;;;;5053938;28;20140;-60
2023/09/21 05:39:27;;;;;;;11.30;1.70;;;13.20;99.90;;;;;;5053297;28;20040;-59
2023/09/21 05:41:54;;;;;;;6.07;1.27;;;13.20;99.90;;;;;;5029153;28;20084;-59
2023/09/21 05:44:24;;;;;;;7.50;2.00;;;13.20;99.90;;;;;;5051944;28;20495;-59
2023/09/21 05:46:51;;;;;;;5.95;1.73;;;13.20;99.90;;;;;;5042985;28;20140;-58
2023/09/21 05:49:24;;;;;;;13.80;1.98;;;13.10;99.90;;;;;;5026824;28;20048;-59
2023/09/21 05:51:56;;;;;;;15.48;2.45;;;13.10;99.90;;;;;;5045187;28;20048;-59
2023/09/21 05:54:23;;;;;;;13.93;1.90;;;13.10;99.90;;;;;;5042885;28;20348;-59
2023/09/21 05:56:52;;;;;;;10.95;1.80;;;13.10;99.90;;;;;;5052228;28;20056;-60
2023/09/21 05:59:19;;;;;;;12.85;1.90;;;13.10;99.90;;;;;;5038969;28;20067;-60
2023/09/21 06:01:48;;;;;;;6.78;1.40;;;13.10;99.90;;;;;;5059180;28;20312;-60
2023/09/21 06:04:17;;;;;;;14.15;1.55;;;13.10;99.90;;;;;;5065178;28;20044;-59
2023/09/21 06:06:45;;;;;;;11.95;1.63;;;13.00;99.90;;;;;;5048486;28;20126;-60
2023/09/21 06:09:18;;;;;;;5.63;1.70;;;13.00;99.90;;;;;;5044497;28;20059;-59
2023/09/21 06:11:46;;;;;;;8.93;2.25;;;13.00;99.90;;;;;;5040358;28;20082;-60
2023/09/21 06:14:13;;;;;;;11.45;1.63;;;13.00;99.90;;;;;;5038489;28;20074;-59
2023/09/21 06:16:42;;;;;;;14.98;1.92;;;12.90;99.90;;;;;;5038523;28;20078;-59
2023/09/21 06:19:11;;;;;;;6.95;1.65;;;13.00;99.90;;;;;;5034100;28;20049;-60
2023/09/21 06:21:39;;;;;;;6.25;1.85;;;13.00;99.90;;;;;;5037778;28;20037;-60
2023/09/21 06:24:09;;;;;;;5.45;1.58;;;13.00;99.90;;;;;;5045283;28;20294;-59
2023/09/21 06:26:36;;;;;;;8.13;2.05;;;13.00;99.90;;;;;;5021386;28;20052;-60
2023/09/21 06:29:03;;;;;;;8.13;1.40;;;13.00;99.90;;;;;;5017105;28;20107;-59
2023/09/21 06:31:30;;;;;;;10.40;1.52;;;13.00;99.90;;;;;;5058262;28;20052;-60
2023/09/21 06:33:58;;;;;;;9.20;2.03;;;13.00;99.90;;;;;;5016902;28;20507;-59
2023/09/21 06:36:27;;;;;;;9.40;3.28;;;13.00;99.90;;;;;;5044530;28;20489;-60
2023/09/21 06:38:58;;;;;;;7.90;2.03;;;13.00;99.90;;;;;;5030737;28;20155;-60
2023/09/21 06:41:25;;;;;;;9.45;1.70;;;13.00;99.90;;;;;;5038301;28;20045;-60
2023/09/21 06:43:52;;;;;;;6.63;2.35;;;13.00;99.90;;;;;;5065897;28;20458;-57
2023/09/21 06:46:18;;;;;;;5.07;2.03;;;13.00;99.90;;;;;;5053337;28;20114;-60
2023/09/21 06:48:48;;;;;;;13.93;2.97;;;13.00;99.90;;;;;;5045790;28;20130;-60
2023/09/21 06:51:15;;;;;;;8.95;2.15;;;13.00;99.90;;;;;;5040699;28;20105;-61
2023/09/21 06:53:43;;;;;;;13.65;3.03;;;13.00;99.90;;;;;;5027969;28;20176;-60
2023/09/21 06:56:11;;;;;;;9.73;2.33;;;13.10;99.90;;;;;;5028354;28;20045;-59
2023/09/21 06:58:39;;;;;;;11.80;2.67;;;13.00;99.90;;;;;;5047242;28;20568;-60
2023/09/21 07:01:06;;;;;;;12.48;2.53;;;13.10;99.90;;;;;;5045638;28;20048;-60
2023/09/21 07:03:32;;;;;;;12.18;2.00;;;13.10;99.90;;;;;;5041248;28;20106;-60
2023/09/21 07:06:00;;;;;;;9.18;2.28;;;13.10;99.90;;;;;;5045608;28;20089;-60
2023/09/21 07:08:27;;;;;;;10.95;2.85;;;13.10;99.90;;;;;;5034663;28;20044;-61
2023/09/21 07:10:54;;;;;;;6.72;2.13;;;13.10;99.90;;;;;;5048591;28;20554;-60
2023/09/21 07:13:21;;;;;;;8.75;2.00;;;13.10;99.90;;;;;;5026427;28;20045;-60
2023/09/21 07:15:48;;;;;;;8.18;2.40;;;13.10;99.90;;;;;;5035534;28;20041;-60
2023/09/21 07:18:16;;;;;;;7.90;2.45;;;13.10;99.90;;;;;;5041112;28;20484;-60
2023/09/21 07:20:43;;;;;;;11.18;2.22;;;13.10;99.90;;;;;;5035224;28;20045;-60
2023/09/21 07:23:10;;;;;;;12.75;2.40;;;13.00;99.90;;;;;;5041071;28;20118;-60
2023/09/21 07:25:37;;;;;;;7.40;1.67;;;12.90;99.90;;;;;;5036688;28;20497;-60
2023/09/21 07:28:04;;;;;;;14.48;2.42;;;12.90;99.90;;;;;;5044325;28;20057;-60
2023/09/21 07:30:32;;;;;;;8.23;2.13;;;13.00;99.90;;;;;;5050566;28;20045;-59
2023/09/21 07:33:01;;;;;;;8.65;2.42;;;13.00;99.90;;;;;;5048712;28;20060;-59
2023/09/21 07:35:28;;;;;;;10.40;2.00;;;13.10;99.90;;;;;;5033994;28;20404;-60
2023/09/21 07:37:55;;;;;;;10.70;2.20;;;13.10;99.90;;;;;;5035885;28;20103;-60
2023/09/21 07:40:24;;;;;;;10.05;2.70;;;13.20;99.90;;;;;;5048854;28;20476;-60
2023/09/21 07:42:51;;;;;;;13.60;2.92;;;13.20;99.90;;;;;;5049671;28;20049;-60
2023/09/21 07:45:22;;;;;;;8.15;2.42;;;13.20;99.90;;;;;;5043854;28;20550;-59
2023/09/21 07:47:49;;;;;;;14.00;2.80;;;13.20;99.90;;;;;;5051370;28;20053;-60
2023/09/21 07:50:23;;;;;;;7.68;2.75;;;13.20;99.90;;;;;;5039679;28;20041;-60
2023/09/21 07:52:53;;;;;;;9.47;2.63;;;13.20;99.90;;;;;;5038734;28;20072;-60
2023/09/21 07:55:20;;;;;;;16.15;3.00;;;13.20;99.90;;;;;;5056913;28;20064;-60
2023/09/21 07:57:47;;;;;;;8.65;2.13;;;13.20;99.90;;;;;;5049783;28;20075;-59
2023/09/21 08:00:14;;;;;;;12.23;2.67;;;13.30;99.90;;;;;;5060114;28;20045;-59
2023/09/21 08:02:42;;;;;;;15.15;3.47;;;13.30;99.90;;;;;;5046277;28;20057;-59
2023/09/21 08:05:12;;;;;;;13.75;2.58;;;13.40;99.90;;;;;;5042041;28;20133;-60
2023/09/21 08:07:40;;;;;;;21.73;3.17;;;13.40;99.90;;;;;;5019857;28;20080;-59
2023/09/21 08:10:10;;;;;;;12.20;2.50;;;13.50;99.90;;;;;;5036194;28;20041;-59
2023/09/21 08:12:40;;;;;;;11.15;2.30;;;13.60;99.90;;;;;;5039506;28;20053;-59
2023/09/21 08:15:11;;;;;;;12.10;2.70;;;13.60;99.90;;;;;;5056734;28;20041;-60
2023/09/21 08:17:38;;;;;;;10.80;2.20;;;13.70;99.90;;;;;;5038335;28;20080;-59
2023/09/21 08:20:09;;;;;;;12.82;3.03;;;13.70;99.90;;;;;;5047366;28;20049;-60
2023/09/21 08:22:37;;;;;;;13.77;1.67;;;13.80;99.90;;;;;;5032525;28;20049;-60
2023/09/21 08:25:06;;;;;;;9.95;1.83;;;13.90;99.90;;;;;;5059193;28;20098;-60
2023/09/21 08:27:33;;;;;;;14.30;3.00;;;13.90;99.90;;;;;;5039771;28;20091;-60
2023/09/21 08:30:03;;;;;;;9.27;1.83;;;13.90;99.90;;;;;;5052064;28;20068;-60
2023/09/21 08:32:31;;;;;;;8.98;1.90;;;13.90;99.90;;;;;;5033158;28;20041;-60
2023/09/21 08:34:58;;;;;;;6.60;1.95;;;14.00;99.90;;;;;;5037201;28;20050;-60
2023/09/21 08:37:25;;;;;;;15.18;2.90;;;14.00;99.90;;;;;;5045863;28;20048;-60
2023/09/21 08:39:51;;;;;;;24.13;4.25;;;14.10;99.90;;;;;;5034678;28;20064;-59
2023/09/21 08:42:18;;;;;;;12.82;2.55;;;14.10;99.90;;;;;;5053495;28;20041;-60
2023/09/21 08:44:47;;;;;;;14.30;2.05;;;14.20;99.90;;;;;;5053945;28;20064;-60
2023/09/21 08:47:14;;;;;;;10.13;2.85;;;14.20;99.90;;;;;;5027135;28;20132;-60
2023/09/21 08:49:59;;;;;;;11.60;1.77;;;14.30;99.90;;;;;;5036938;28;20045;-63
2023/09/21 08:52:26;;;;;;;12.23;1.80;;;14.40;99.90;;;;;;5019444;28;20049;-60
2023/09/21 08:54:52;;;;;;;14.93;1.88;;;14.40;99.90;;;;;;5031203;28;20071;-60
2023/09/21 08:57:19;;;;;;;12.10;2.20;;;14.50;99.90;;;;;;5045511;28;20037;-60
2023/09/21 08:59:48;;;;;;;14.35;2.00;;;14.60;99.90;;;;;;5005919;28;20056;-60
2023/09/21 09:02:14;;;;;;;11.75;2.33;;;14.60;99.90;;;;;;5021803;28;20037;-60
2023/09/21 09:04:42;;;;;;;15.98;2.00;;;14.80;99.90;;;;;;5033887;28;20053;-60
2023/09/21 09:07:12;;;;;;;13.55;2.33;;;15.10;99.90;;;;;;5056195;28;20072;-60
2023/09/21 09:09:39;;;;;;;7.65;1.60;;;15.40;99.90;;;;;;5042286;28;20042;-60
2023/09/21 09:12:22;;;;;;;8.95;2.42;;;15.60;99.90;;;;;;5054087;28;20086;-59
2023/09/21 09:14:50;;;;;;;10.93;2.08;;;15.80;99.90;;;;;;5037221;28;20170;-59
2023/09/21 09:17:18;;;;;;;13.38;2.63;;;16.00;99.90;;;;;;5029285;28;20123;-61
2023/09/21 09:19:47;;;;;;;13.35;2.55;;;16.20;99.90;;;;;;5041530;28;20048;-59
2023/09/21 09:22:15;;;;;;;15.55;2.38;;;16.40;99.90;;;;;;5053809;28;20048;-60
2023/09/21 09:24:47;;;;;;;14.25;2.30;;;16.60;99.90;;;;;;5031089;28;20056;-60
2023/09/21 09:27:14;;;;;;;9.18;1.92;;;16.80;99.90;;;;;;5037316;28;20060;-60
2023/09/21 09:29:50;;;;;;;12.27;3.00;;;16.90;99.90;;;;;;5017402;28;20403;-61
2023/09/21 09:32:21;;;;;;;12.32;2.50;;;16.90;99.90;;;;;;5053076;28;20136;-59
2023/09/21 09:34:48;;;;;;;10.98;2.00;;;17.00;99.90;;;;;;5035510;28;20049;-59
2023/09/21 09:37:15;;;;;;;13.23;1.95;;;16.70;99.90;;;;;;5034683;28;20041;-59
2023/09/21 09:39:43;;;;;;;8.07;1.88;;;16.50;99.90;;;;;;5031334;28;20056;-59
2023/09/21 09:42:11;;;;;;;11.80;2.30;;;16.30;99.90;;;;;;5046468;28;20048;-62
2023/09/21 09:44:43;;;;;;;13.32;2.05;;;16.20;99.90;;;;;;5042997;28;20067;-59
2023/09/21 09:47:12;;;;;;;13.02;2.08;;;16.00;99.90;;;;;;5045775;28;20050;-59
2023/09/21 09:49:40;;;;;;;14.95;3.53;;;16.00;99.90;;;;;;5041228;28;20357;-59
2023/09/21 09:52:09;;;;;;;8.93;2.55;;;16.00;99.90;;;;;;5047064;28;20044;-60
2023/09/21 09:54:36;;;;;;;12.45;2.00;;;16.00;99.90;;;;;;5038492;28;20084;-59
2023/09/21 09:57:04;;;;;;;9.80;1.77;;;16.00;99.90;;;;;;5036668;28;20392;-59
2023/09/21 09:59:31;;;;;;;9.02;1.98;;;16.00;99.90;;;;;;5058160;28;20091;-59
2023/09/21 10:01:58;;;;;;;12.18;2.58;;;16.10;99.90;;;;;;5030644;28;20519;-59
2023/09/21 10:04:26;;;;;;;6.93;1.40;;;16.20;99.90;;;;;;5048891;28;20047;-59
2023/09/21 10:06:53;;;;;;;5.95;1.85;;;16.20;99.90;;;;;;5031029;28;20107;-60
2023/09/21 10:09:20;;;;;;;13.40;2.58;;;16.30;99.90;;;;;;5044412;28;20549;-60
2023/09/21 10:11:48;;;;;;;13.32;2.65;;;16.20;99.90;;;;;;5048741;28;20565;-60
2023/09/21 10:14:18;;;;;;;8.75;2.45;;;16.20;99.90;;;;;;5037583;28;20456;-60
2023/09/21 10:16:56;;;;;;;10.00;2.25;;;16.30;99.90;;;;;;5058295;28;20124;-61
2023/09/21 10:19:28;;;;;;;12.40;2.55;;;16.30;99.90;;;;;;5038808;28;20048;-59
2023/09/21 10:22:00;;;;;;;7.63;1.90;;;16.30;99.90;;;;;;5068436;28;20461;-59
2023/09/21 10:24:30;;;;;;;10.00;2.83;;;16.20;99.90;;;;;;5035111;28;20047;-59
2023/09/21 10:27:01;;;;;;;6.38;1.45;;;16.40;99.90;;;;;;5068075;28;20044;-60
2023/09/21 10:29:36;;;;;;;7.78;1.60;;;16.50;99.90;;;;;;5039021;28;20319;-60
2023/09/21 10:32:07;;;;;;;15.00;2.55;;;16.70;99.90;;;;;;5051857;28;20094;-60
2023/09/21 10:34:34;;;;;;;14.63;2.20;;;16.90;99.90;;;;;;5063069;28;20105;-60
2023/09/21 10:37:10;;;;;;;10.77;2.08;;;17.00;99.90;;;;;;5046949;28;20037;-60
2023/09/21 10:39:39;;;;;;;14.70;2.22;;;17.00;99.90;;;;;;5059867;28;20102;-60
2023/09/21 10:42:06;;;;;;;10.75;1.83;;;17.10;99.90;;;;;;5068280;28;20045;-60
2023/09/21 10:45:07;;;;;;;11.07;1.67;;;17.30;99.90;;;;;;5039485;28;20045;-60
2023/09/21 10:47:37;;;;;;;10.32;1.90;;;17.30;99.90;;;;;;5028321;28;20049;-60
2023/09/21 10:50:12;;;;;;;6.40;1.80;;;17.40;99.90;;;;;;5050687;28;20496;-60
2023/09/21 10:52:44;;;;;;;9.05;2.00;;;17.40;99.90;;;;;;5067864;28;20091;-59
2023/09/21 10:55:13;;;;;;;11.52;2.10;;;17.50;99.90;;;;;;5063183;28;20045;-60
2023/09/21 10:57:41;;;;;;;13.23;1.95;;;17.60;99.90;;;;;;5045325;28;20063;-60
2023/09/21 11:00:16;;;;;;;15.48;2.63;;;17.70;99.90;;;;;;5059019;28;20044;-61
2023/09/21 11:02:44;;;;;;;12.23;2.15;;;17.80;99.90;;;;;;5028212;28;20049;-61
2023/09/21 11:05:11;;;;;;;8.43;2.08;;;17.90;99.90;;;;;;5047387;28;20478;-60
2023/09/21 11:07:43;;;;;;;14.32;2.55;;;17.90;99.90;;;;;;5055129;28;20551;-60
2023/09/21 11:10:11;;;;;;;9.57;2.22;;;18.00;99.90;;;;;;5045247;28;20048;-60
2023/09/21 11:12:40;;;;;;;10.65;2.13;;;18.00;99.90;;;;;;5064939;28;20114;-62
2023/09/21 11:15:16;;;;;;;14.90;2.60;;;18.00;99.90;;;;;;5045039;28;20056;-61
2023/09/21 11:17:44;;;;;;;20.88;3.00;;;18.00;99.90;;;;;;5046758;28;20049;-60
2023/09/21 11:20:17;;;;;;;9.30;2.42;;;18.10;99.90;;;;;;5052958;28;20037;-60
2023/09/21 11:22:45;;;;;;;;;;;18.00;99.90;;;;;;5062809;28;20521;-59
2023/09/21 11:25:14;;;;;;;11.38;2.65;;;18.00;99.90;;;;;;5062557;28;19975;-59
2023/09/21 11:27:41;;;;;;;8.70;2.53;;;18.00;99.90;;;;;;5059864;28;20053;-59
2023/09/21 11:30:11;;;;;;;9.90;2.20;;;17.90;99.90;;;;;;5040512;28;20072;-59
2023/09/21 11:32:43;;;;;;;11.15;2.20;;;17.90;99.90;;;;;;5057036;28;20470;-60
2023/09/21 11:35:10;;;;;;;12.43;1.90;;;17.80;99.90;;;;;;5051407;28;20049;-60
2023/09/21 11:37:37;;;;;;;12.60;2.20;;;17.80;99.90;;;;;;5056928;28;20094;-60
2023/09/21 11:40:14;;;;;;;13.85;2.00;;;17.80;99.90;;;;;;5046964;28;20526;-61
2023/09/21 11:42:44;;;;;;;8.68;1.45;;;17.80;99.90;;;;;;5066903;28;20098;-60
2023/09/21 11:45:17;;;;;;;10.73;2.85;;;17.80;99.90;;;;;;5047550;28;20519;-61
2023/09/21 11:47:57;;;;;;;10.93;2.47;;;17.80;99.90;;;;;;5044414;28;20049;-60
2023/09/21 11:50:30;;;;;;;6.40;2.08;;;17.80;99.90;;;;;;5033717;28;20132;-58
2023/09/21 11:52:57;;;;;;;8.15;2.45;;;17.70;99.90;;;;;;5058349;28;20052;-59
2023/09/21 11:55:25;;;;;;;9.35;1.90;;;17.70;99.90;;;;;;5048449;28;20049;-60
2023/09/21 11:57:54;;;;;;;11.70;2.20;;;17.70;99.90;;;;;;5025389;28;20049;-60
2023/09/21 12:00:27;;;;;;;10.68;2.40;;;17.80;99.90;;;;;;5065488;28;20080;-59
2023/09/21 12:02:56;;;;;;;15.32;1.98;;;17.80;99.90;;;;;;5054046;28;20056;-60
2023/09/21 12:05:25;;;;;;;13.75;2.83;;;17.80;99.90;;;;;;5067475;28;20047;-61
2023/09/21 12:07:53;;;;;;;6.18;2.05;;;17.80;99.90;;;;;;5059230;28;20049;-61
2023/09/21 12:10:20;;;;;;;6.40;2.00;;;17.80;99.90;;;;;;5047486;28;20053;-60
2023/09/21 12:12:47;;;;;;;10.77;2.35;;;17.90;99.90;;;;;;5041344;28;20045;-60
2023/09/21 12:15:14;;;;;;;8.55;2.03;;;17.90;99.90;;;;;;5047225;28;20057;-60
2023/09/21 12:17:41;;;;;;;16.77;2.50;;;18.00;99.90;;;;;;5044977;28;20045;-61
2023/09/21 12:20:17;;;;;;;5.78;2.10;;;18.00;99.90;;;;;;5062598;28;20049;-58
2023/09/21 12:22:44;;;;;;;7.78;1.65;;;18.10;99.90;;;;;;5040099;28;20102;-60
2023/09/21 12:25:11;;;;;;;11.25;2.13;;;18.10;99.90;;;;;;5066401;28;20048;-60
2023/09/21 12:27:38;;;;;;;10.20;2.15;;;18.20;99.90;;;;;;5061254;28;20060;-60
2023/09/21 12:30:12;;;;;;;8.23;2.35;;;18.20;99.90;;;;;;5061263;28;20048;-61
2023/09/21 12:32:39;;;;;;;19.55;3.47;;;18.20;99.90;;;;;;5048848;28;20047;-60
2023/09/21 12:35:08;;;;;;;10.77;2.00;;;18.20;99.90;;;;;;5056357;28;20048;-60
2023/09/21 12:37:36;;;;;;;10.13;2.92;;;18.20;99.90;;;;;;5059315;28;20041;-60
2023/09/21 12:40:07;;;;;;;7.97;1.60;;;18.30;99.90;;;;;;5051447;28;20060;-60
2023/09/21 12:42:34;;;;;;;14.15;2.17;;;18.30;99.90;;;;;;5066909;28;20376;-61
2023/09/21 12:45:01;;;;;;;8.68;1.30;;;18.20;99.90;;;;;;5061448;28;20045;-60
2023/09/21 12:47:31;;;;;;;7.53;1.88;;;18.10;99.90;;;;;;5066691;28;20049;-61
2023/09/21 12:49:58;;;;;;;14.20;1.92;;;18.00;99.90;;;;;;5041825;28;20481;-60
2023/09/21 12:52:24;;;;;;;12.38;1.70;;;18.10;99.90;;;;;;5054770;28;20103;-60